RYR9688 EYKA-EIDW
Flight info
| Callsign | RYR9688 |
|---|---|
| Flight time | 2h 38m |
| Altitude | 36000 |
| Route | GOJOM DCT KRD B120 RANOK/N0436F360 L983 RUMAR/N0391F280 L983 TELMO/N0434F360 L983 DETUS DCT OLPIB M611 LANGO P999 ALS DCT ATTUS DCT ROPAL DCT TOWTE DCT USADI DCT PEPEG DCT BOYNE BOYNE3R |
| Aircraft | B738/M-SDE2E3FGHIRWXY/LB1 |
Departure
| Time | 2026-04-22 18:53 |
|---|---|
| Airport | Kaunas International Airport (EYKA) |
Arrival
| Time | 2026-04-22 21:31 |
|---|---|
| Airport | Dublin Airport (EIDW) |
| Time | Latitude | Longitude | Altitude | Speed | Heading |
|---|---|---|---|---|---|
| 2026-04-22 18:36 | 54.96627 | 24.07400 | 267 ft | 0 kts | 104° |
| 2026-04-22 18:42 | 54.96627 | 24.07399 | 267 ft | 0 kts | 104° |
| 2026-04-22 18:48 | 54.96626 | 24.07405 | 267 ft | 1 kts | 104° |
| 2026-04-22 18:48 | 54.96620 | 24.07445 | 267 ft | 6 kts | 110° |
| 2026-04-22 18:49 | 54.96572 | 24.07481 | 267 ft | 10 kts | 175° |
| 2026-04-22 18:49 | 54.96505 | 24.07451 | 267 ft | 11 kts | 244° |
| 2026-04-22 18:49 | 54.96460 | 24.07338 | 267 ft | 11 kts | 187° |
| 2026-04-22 18:49 | 54.96366 | 24.07346 | 266 ft | 16 kts | 184° |
| 2026-04-22 18:50 | 54.96318 | 24.07184 | 266 ft | 17 kts | 281° |
| 2026-04-22 18:50 | 54.96312 | 24.06988 | 268 ft | 16 kts | 261° |
| 2026-04-22 18:50 | 54.96302 | 24.06793 | 269 ft | 16 kts | 265° |
| 2026-04-22 18:50 | 54.96296 | 24.06664 | 269 ft | 16 kts | 266° |
| 2026-04-22 18:51 | 54.96284 | 24.06414 | 269 ft | 15 kts | 263° |
| 2026-04-22 18:51 | 54.96266 | 24.06218 | 267 ft | 17 kts | 241° |
| 2026-04-22 18:51 | 54.96213 | 24.06021 | 267 ft | 18 kts | 281° |
| 2026-04-22 18:51 | 54.96262 | 24.06011 | 267 ft | 5 kts | 69° |
| 2026-04-22 18:52 | 54.96267 | 24.06089 | 267 ft | 16 kts | 86° |
| 2026-04-22 18:52 | 54.96295 | 24.06674 | 270 ft | 84 kts | 84° |
| 2026-04-22 18:52 | 54.96364 | 24.08078 | 267 ft | 146 kts | 85° |
| 2026-04-22 18:52 | 54.96481 | 24.10092 | 468 ft | 178 kts | 80° |
| 2026-04-22 18:53 | 54.96607 | 24.12283 | 1095 ft | 189 kts | 79° |
| 2026-04-22 18:53 | 54.96716 | 24.14528 | 1980 ft | 185 kts | 77° |
| 2026-04-22 18:53 | 54.96845 | 24.16845 | 2435 ft | 204 kts | 77° |
| 2026-04-22 18:53 | 54.97002 | 24.19441 | 2677 ft | 227 kts | 77° |
| 2026-04-22 18:54 | 54.97258 | 24.22255 | 2882 ft | 240 kts | 62° |
| 2026-04-22 18:54 | 54.98287 | 24.24417 | 3159 ft | 237 kts | 22° |
| 2026-04-22 18:54 | 54.99884 | 24.24955 | 3581 ft | 237 kts | 349° |
| 2026-04-22 18:54 | 55.01417 | 24.24035 | 4374 ft | 234 kts | 325° |
| 2026-04-22 18:55 | 55.02505 | 24.21945 | 5204 ft | 236 kts | 298° |
| 2026-04-22 18:55 | 55.02977 | 24.19215 | 5953 ft | 243 kts | 285° |
| 2026-04-22 18:55 | 55.03227 | 24.16231 | 6666 ft | 249 kts | 282° |
| 2026-04-22 18:55 | 55.03430 | 24.13229 | 7348 ft | 254 kts | 282° |
| 2026-04-22 18:56 | 55.03631 | 24.10147 | 8061 ft | 257 kts | 282° |
| 2026-04-22 18:56 | 55.03838 | 24.07032 | 8765 ft | 261 kts | 282° |
| 2026-04-22 18:56 | 55.04053 | 24.03861 | 9482 ft | 265 kts | 282° |
| 2026-04-22 18:56 | 55.04274 | 24.00641 | 10118 ft | 270 kts | 283° |
| 2026-04-22 18:57 | 55.04514 | 23.97259 | 10333 ft | 292 kts | 282° |
| 2026-04-22 18:57 | 55.04774 | 23.93617 | 10508 ft | 313 kts | 282° |
| 2026-04-22 18:57 | 55.05052 | 23.89727 | 10670 ft | 333 kts | 282° |
| 2026-04-22 18:57 | 55.05343 | 23.85609 | 10886 ft | 349 kts | 282° |
| 2026-04-22 18:58 | 55.05640 | 23.81354 | 11385 ft | 356 kts | 281° |
| 2026-04-22 18:58 | 55.05937 | 23.77037 | 12067 ft | 358 kts | 281° |
| 2026-04-22 18:58 | 55.06234 | 23.72721 | 12753 ft | 360 kts | 282° |
| 2026-04-22 18:58 | 55.06533 | 23.68383 | 13414 ft | 363 kts | 282° |
| 2026-04-22 18:59 | 55.06832 | 23.64036 | 14017 ft | 367 kts | 282° |
| 2026-04-22 18:59 | 55.07140 | 23.59570 | 14517 ft | 374 kts | 282° |
| 2026-04-22 18:59 | 55.07456 | 23.54978 | 15001 ft | 381 kts | 282° |
| 2026-04-22 18:59 | 55.07768 | 23.50404 | 15537 ft | 386 kts | 282° |
| 2026-04-22 19:00 | 55.08084 | 23.45737 | 16105 ft | 390 kts | 282° |
| 2026-04-22 19:00 | 55.08404 | 23.40967 | 16673 ft | 395 kts | 282° |
| 2026-04-22 19:00 | 55.08725 | 23.36178 | 17184 ft | 401 kts | 282° |
| 2026-04-22 19:00 | 55.09049 | 23.31301 | 17701 ft | 406 kts | 282° |
| 2026-04-22 19:01 | 55.09374 | 23.26384 | 18214 ft | 411 kts | 282° |
| 2026-04-22 19:01 | 55.09701 | 23.21392 | 18672 ft | 415 kts | 282° |
| 2026-04-22 19:01 | 55.10029 | 23.16354 | 19173 ft | 419 kts | 282° |
| 2026-04-22 19:01 | 55.10357 | 23.11292 | 19644 ft | 422 kts | 282° |
| 2026-04-22 19:02 | 55.10688 | 23.06168 | 20052 ft | 426 kts | 282° |
| 2026-04-22 19:02 | 55.11016 | 23.00992 | 20484 ft | 431 kts | 281° |
| 2026-04-22 19:02 | 55.11092 | 22.95698 | 20920 ft | 443 kts | 271° |
| 2026-04-22 19:02 | 55.10706 | 22.90331 | 21363 ft | 449 kts | 267° |
| 2026-04-22 19:03 | 55.10234 | 22.84967 | 21789 ft | 453 kts | 266° |
| 2026-04-22 19:03 | 55.09741 | 22.79524 | 22179 ft | 457 kts | 266° |
| 2026-04-22 19:03 | 55.09246 | 22.74014 | 22571 ft | 461 kts | 267° |
| 2026-04-22 19:03 | 55.08755 | 22.68464 | 22981 ft | 464 kts | 267° |
| 2026-04-22 19:04 | 55.08271 | 22.62893 | 23379 ft | 467 kts | 267° |
| 2026-04-22 19:04 | 55.07786 | 22.57263 | 23725 ft | 470 kts | 267° |
| 2026-04-22 19:04 | 55.07302 | 22.51620 | 24073 ft | 472 kts | 267° |
| 2026-04-22 19:04 | 55.06814 | 22.45937 | 24443 ft | 474 kts | 267° |
| 2026-04-22 19:05 | 55.06321 | 22.40235 | 24791 ft | 475 kts | 266° |
| 2026-04-22 19:05 | 55.05825 | 22.34520 | 25152 ft | 477 kts | 266° |
| 2026-04-22 19:05 | 55.05324 | 22.28779 | 25474 ft | 479 kts | 266° |
| 2026-04-22 19:05 | 55.04817 | 22.23007 | 25751 ft | 483 kts | 266° |
| 2026-04-22 19:06 | 55.04306 | 22.17216 | 26022 ft | 486 kts | 266° |
| 2026-04-22 19:06 | 55.03793 | 22.11437 | 26334 ft | 487 kts | 266° |
| 2026-04-22 19:06 | 55.03269 | 22.05583 | 26658 ft | 489 kts | 266° |
| 2026-04-22 19:07 | 55.02208 | 21.93827 | 27223 ft | 493 kts | 266° |
| 2026-04-22 19:07 | 55.01669 | 21.87903 | 27514 ft | 495 kts | 266° |
| 2026-04-22 19:07 | 55.01125 | 21.81954 | 27901 ft | 494 kts | 266° |
| 2026-04-22 19:07 | 55.00580 | 21.76046 | 28369 ft | 492 kts | 266° |
| 2026-04-22 19:08 | 55.00035 | 21.70165 | 28817 ft | 491 kts | 266° |
| 2026-04-22 19:08 | 54.99496 | 21.64375 | 29231 ft | 490 kts | 266° |
| 2026-04-22 19:08 | 54.98948 | 21.58512 | 29611 ft | 490 kts | 266° |
| 2026-04-22 19:08 | 54.98398 | 21.52655 | 30004 ft | 489 kts | 266° |
| 2026-04-22 19:09 | 54.97848 | 21.46828 | 30362 ft | 488 kts | 266° |
| 2026-04-22 19:09 | 54.97293 | 21.40988 | 30677 ft | 489 kts | 266° |
| 2026-04-22 19:09 | 54.96735 | 21.35139 | 30926 ft | 490 kts | 266° |
| 2026-04-22 19:09 | 54.96174 | 21.29283 | 31210 ft | 490 kts | 266° |
| 2026-04-22 19:10 | 54.95609 | 21.23419 | 31430 ft | 492 kts | 266° |
| 2026-04-22 19:10 | 54.95038 | 21.17525 | 31631 ft | 494 kts | 266° |
| 2026-04-22 19:10 | 54.94462 | 21.11620 | 31905 ft | 494 kts | 266° |
| 2026-04-22 19:10 | 54.93885 | 21.05743 | 32221 ft | 494 kts | 265° |
| 2026-04-22 19:11 | 54.93304 | 20.99852 | 32525 ft | 494 kts | 265° |
| 2026-04-22 19:11 | 54.92720 | 20.93960 | 32784 ft | 494 kts | 265° |
| 2026-04-22 19:11 | 54.92141 | 20.88140 | 33052 ft | 495 kts | 265° |
| 2026-04-22 19:11 | 54.91545 | 20.82184 | 33339 ft | 495 kts | 265° |
| 2026-04-22 19:12 | 54.90953 | 20.76290 | 33617 ft | 495 kts | 265° |
| 2026-04-22 19:12 | 54.90366 | 20.70471 | 33866 ft | 495 kts | 265° |
| 2026-04-22 19:12 | 54.89767 | 20.64570 | 34114 ft | 496 kts | 265° |
| 2026-04-22 19:12 | 54.89277 | 20.58659 | 34334 ft | 491 kts | 272° |
| 2026-04-22 19:13 | 54.89250 | 20.52773 | 34519 ft | 485 kts | 278° |
| 2026-04-22 19:13 | 54.89371 | 20.46912 | 34696 ft | 486 kts | 278° |
| 2026-04-22 19:13 | 54.89491 | 20.41030 | 34869 ft | 487 kts | 278° |
| 2026-04-22 19:13 | 54.89572 | 20.35132 | 35111 ft | 488 kts | 277° |
| 2026-04-22 19:14 | 54.89625 | 20.29259 | 35383 ft | 487 kts | 277° |
| 2026-04-22 19:14 | 54.89668 | 20.23379 | 35647 ft | 486 kts | 277° |
| 2026-04-22 19:14 | 54.89708 | 20.17581 | 35859 ft | 486 kts | 277° |
| 2026-04-22 19:14 | 54.89748 | 20.11696 | 36033 ft | 487 kts | 277° |
| 2026-04-22 19:15 | 54.89775 | 20.07715 | 36066 ft | 489 kts | 276° |
| 2026-04-22 19:15 | 54.89861 | 19.93885 | 36060 ft | 493 kts | 276° |
| 2026-04-22 19:16 | 54.89918 | 19.81998 | 36081 ft | 491 kts | 276° |
| 2026-04-22 19:16 | 54.89967 | 19.70143 | 36088 ft | 490 kts | 276° |
| 2026-04-22 19:17 | 54.90009 | 19.58308 | 36101 ft | 489 kts | 277° |
| 2026-04-22 19:17 | 54.90233 | 19.46548 | 36098 ft | 486 kts | 278° |
| 2026-04-22 19:18 | 54.90534 | 19.34773 | 36084 ft | 486 kts | 278° |
| 2026-04-22 19:18 | 54.90791 | 19.23093 | 36100 ft | 487 kts | 278° |
| 2026-04-22 19:19 | 54.91018 | 19.11316 | 36101 ft | 487 kts | 277° |
| 2026-04-22 19:19 | 54.91235 | 18.99514 | 36108 ft | 488 kts | 277° |
| 2026-04-22 19:20 | 54.91611 | 18.87813 | 36107 ft | 487 kts | 281° |
| 2026-04-22 19:20 | 54.92263 | 18.76096 | 36100 ft | 486 kts | 281° |
| 2026-04-22 19:21 | 54.92919 | 18.64381 | 36111 ft | 488 kts | 281° |
| 2026-04-22 19:21 | 54.93527 | 18.52604 | 36113 ft | 489 kts | 281° |
| 2026-04-22 19:22 | 54.94105 | 18.40811 | 36113 ft | 490 kts | 281° |
| 2026-04-22 19:22 | 54.94672 | 18.28976 | 36115 ft | 491 kts | 280° |
| 2026-04-22 19:23 | 54.95226 | 18.17212 | 36110 ft | 490 kts | 280° |
| 2026-04-22 19:23 | 54.95774 | 18.05364 | 36122 ft | 491 kts | 279° |
| 2026-04-22 19:24 | 54.96311 | 17.93501 | 36116 ft | 491 kts | 279° |
| 2026-04-22 19:24 | 54.96836 | 17.81642 | 36122 ft | 492 kts | 279° |
| 2026-04-22 19:25 | 54.97267 | 17.71746 | 36095 ft | 492 kts | 279° |
| 2026-04-22 19:25 | 54.97855 | 17.57933 | 36117 ft | 492 kts | 279° |
| 2026-04-22 19:26 | 54.98354 | 17.46025 | 36122 ft | 493 kts | 279° |
| 2026-04-22 19:26 | 54.98843 | 17.34102 | 36120 ft | 493 kts | 278° |
| 2026-04-22 19:27 | 54.99319 | 17.22186 | 36124 ft | 494 kts | 278° |
| 2026-04-22 19:27 | 54.99785 | 17.10239 | 36114 ft | 494 kts | 278° |
| 2026-04-22 19:28 | 55.00238 | 16.98291 | 36122 ft | 494 kts | 278° |
| 2026-04-22 19:28 | 55.00677 | 16.86412 | 36126 ft | 494 kts | 278° |
| 2026-04-22 19:29 | 55.01109 | 16.74443 | 36126 ft | 495 kts | 278° |
| 2026-04-22 19:29 | 55.01528 | 16.62462 | 36126 ft | 495 kts | 278° |
| 2026-04-22 19:30 | 55.01868 | 16.52507 | 36123 ft | 495 kts | 277° |
| 2026-04-22 19:30 | 55.02333 | 16.38511 | 36134 ft | 495 kts | 277° |
| 2026-04-22 19:31 | 55.02723 | 16.26517 | 36128 ft | 495 kts | 277° |
| 2026-04-22 19:31 | 55.03145 | 16.14544 | 36135 ft | 495 kts | 277° |
| 2026-04-22 19:32 | 55.03547 | 16.02601 | 36143 ft | 496 kts | 277° |
| 2026-04-22 19:32 | 55.03892 | 15.90601 | 36134 ft | 496 kts | 277° |
| 2026-04-22 19:33 | 55.04217 | 15.78596 | 36140 ft | 496 kts | 276° |
| 2026-04-22 19:33 | 55.04536 | 15.66591 | 36150 ft | 496 kts | 276° |
| 2026-04-22 19:34 | 55.04849 | 15.54544 | 36148 ft | 496 kts | 276° |
| 2026-04-22 19:34 | 55.05150 | 15.42539 | 36140 ft | 495 kts | 276° |
| 2026-04-22 19:35 | 55.05436 | 15.30618 | 36151 ft | 495 kts | 276° |
| 2026-04-22 19:35 | 55.05668 | 15.20553 | 36160 ft | 495 kts | 276° |
| 2026-04-22 19:36 | 55.05977 | 15.06593 | 36159 ft | 496 kts | 276° |
| 2026-04-22 19:36 | 55.06230 | 14.94572 | 36158 ft | 496 kts | 276° |
| 2026-04-22 19:37 | 55.06473 | 14.82526 | 36155 ft | 496 kts | 275° |
| 2026-04-22 19:37 | 55.06599 | 14.70485 | 36158 ft | 498 kts | 272° |
| 2026-04-22 19:38 | 55.06354 | 14.58464 | 36160 ft | 499 kts | 270° |
| 2026-04-22 19:38 | 55.06097 | 14.46382 | 36166 ft | 499 kts | 271° |
| 2026-04-22 19:39 | 55.05920 | 14.36315 | 36146 ft | 499 kts | 271° |
| 2026-04-22 19:39 | 55.05723 | 14.24233 | 36180 ft | 498 kts | 271° |
| 2026-04-22 19:40 | 55.05512 | 14.12140 | 36202 ft | 499 kts | 271° |
| 2026-04-22 19:40 | 55.05231 | 14.00048 | 36205 ft | 499 kts | 270° |
| 2026-04-22 19:41 | 55.04897 | 13.87949 | 36212 ft | 500 kts | 270° |
| 2026-04-22 19:41 | 55.04560 | 13.75841 | 36198 ft | 500 kts | 269° |
| 2026-04-22 19:42 | 55.04219 | 13.63727 | 36221 ft | 500 kts | 269° |
| 2026-04-22 19:42 | 55.03868 | 13.51607 | 36221 ft | 500 kts | 269° |
| 2026-04-22 19:43 | 55.03328 | 13.33550 | 36229 ft | 500 kts | 269° |
| 2026-04-22 19:43 | 55.02969 | 13.21456 | 36220 ft | 501 kts | 268° |
| 2026-04-22 19:44 | 55.02596 | 13.09308 | 36231 ft | 500 kts | 268° |
| 2026-04-22 19:44 | 55.02212 | 12.97219 | 36241 ft | 500 kts | 268° |
| 2026-04-22 19:45 | 55.01825 | 12.85211 | 36236 ft | 500 kts | 268° |
| 2026-04-22 19:45 | 55.01673 | 12.73149 | 36241 ft | 498 kts | 276° |
| 2026-04-22 19:46 | 55.02281 | 12.61118 | 36230 ft | 498 kts | 278° |
| 2026-04-22 19:46 | 55.02974 | 12.49116 | 36248 ft | 498 kts | 277° |
| 2026-04-22 19:47 | 55.03599 | 12.37085 | 36246 ft | 498 kts | 276° |
| 2026-04-22 19:47 | 55.04165 | 12.25059 | 36251 ft | 498 kts | 276° |
| 2026-04-22 19:48 | 55.04706 | 12.12998 | 36256 ft | 499 kts | 276° |
| 2026-04-22 19:48 | 55.05232 | 12.01025 | 36253 ft | 499 kts | 276° |
| 2026-04-22 19:49 | 55.05753 | 11.88939 | 36265 ft | 499 kts | 275° |
| 2026-04-22 19:49 | 55.06264 | 11.76869 | 36274 ft | 499 kts | 275° |
| 2026-04-22 19:50 | 55.06762 | 11.64796 | 36270 ft | 499 kts | 275° |
| 2026-04-22 19:50 | 55.07246 | 11.52801 | 36259 ft | 498 kts | 275° |
| 2026-04-22 19:51 | 55.07720 | 11.40722 | 36278 ft | 498 kts | 275° |
| 2026-04-22 19:51 | 55.08183 | 11.28641 | 36281 ft | 498 kts | 275° |
| 2026-04-22 19:52 | 55.08632 | 11.16582 | 36285 ft | 498 kts | 275° |
| 2026-04-22 19:52 | 55.09071 | 11.04509 | 36286 ft | 498 kts | 274° |
| 2026-04-22 19:53 | 55.09497 | 10.92438 | 36288 ft | 498 kts | 274° |
| 2026-04-22 19:53 | 55.09908 | 10.80450 | 36295 ft | 498 kts | 274° |
| 2026-04-22 19:54 | 55.10310 | 10.68376 | 36297 ft | 498 kts | 274° |
| 2026-04-22 19:54 | 55.10701 | 10.56278 | 36300 ft | 498 kts | 274° |
| 2026-04-22 19:55 | 55.11080 | 10.44191 | 36304 ft | 498 kts | 274° |
| 2026-04-22 19:55 | 55.11447 | 10.32090 | 36310 ft | 498 kts | 274° |
| 2026-04-22 19:56 | 55.11801 | 10.19995 | 36308 ft | 498 kts | 273° |
| 2026-04-22 19:56 | 55.12142 | 10.07978 | 36319 ft | 498 kts | 273° |
| 2026-04-22 19:57 | 55.12473 | 9.95872 | 36319 ft | 498 kts | 273° |
| 2026-04-22 19:57 | 55.12792 | 9.83786 | 36316 ft | 498 kts | 273° |
| 2026-04-22 19:58 | 55.13098 | 9.71688 | 36326 ft | 498 kts | 272° |
| 2026-04-22 19:58 | 55.13393 | 9.59572 | 36326 ft | 499 kts | 272° |
| 2026-04-22 20:00 | 55.14333 | 9.17095 | 36350 ft | 500 kts | 272° |
| 2026-04-22 20:01 | 55.14574 | 9.04996 | 36345 ft | 500 kts | 272° |
| 2026-04-22 20:01 | 55.14804 | 8.92804 | 36344 ft | 501 kts | 272° |
| 2026-04-22 20:02 | 55.15021 | 8.80641 | 36338 ft | 501 kts | 271° |
| 2026-04-22 20:02 | 55.15227 | 8.68457 | 36349 ft | 501 kts | 271° |
| 2026-04-22 20:03 | 55.15421 | 8.56284 | 36359 ft | 501 kts | 271° |
| 2026-04-22 20:03 | 55.15602 | 8.44117 | 36358 ft | 501 kts | 271° |
| 2026-04-22 20:04 | 55.15771 | 8.31930 | 36368 ft | 501 kts | 271° |
| 2026-04-22 20:04 | 55.15927 | 8.19829 | 36365 ft | 501 kts | 270° |
| 2026-04-22 20:05 | 55.16072 | 8.07635 | 36376 ft | 501 kts | 270° |
| 2026-04-22 20:05 | 55.16205 | 7.95447 | 36374 ft | 501 kts | 270° |
| 2026-04-22 20:06 | 55.16326 | 7.83274 | 36384 ft | 501 kts | 270° |
| 2026-04-22 20:06 | 55.16434 | 7.71083 | 36382 ft | 501 kts | 270° |
| 2026-04-22 20:07 | 55.16531 | 7.58965 | 36386 ft | 501 kts | 270° |
| 2026-04-22 20:07 | 55.16615 | 7.46691 | 36393 ft | 502 kts | 269° |
| 2026-04-22 20:08 | 55.16687 | 7.34561 | 36391 ft | 502 kts | 269° |
| 2026-04-22 20:08 | 55.16747 | 7.22345 | 36400 ft | 502 kts | 269° |
| 2026-04-22 20:09 | 55.16795 | 7.10102 | 36399 ft | 503 kts | 269° |
| 2026-04-22 20:09 | 55.16831 | 6.97855 | 36403 ft | 503 kts | 269° |
| 2026-04-22 20:10 | 55.16854 | 6.85679 | 36400 ft | 503 kts | 269° |
| 2026-04-22 20:10 | 55.16866 | 6.73442 | 36414 ft | 503 kts | 268° |
| 2026-04-22 20:11 | 55.16865 | 6.61199 | 36413 ft | 503 kts | 268° |
| 2026-04-22 20:11 | 55.16851 | 6.48965 | 36415 ft | 503 kts | 268° |
| 2026-04-22 20:12 | 55.16826 | 6.36712 | 36422 ft | 503 kts | 268° |
| 2026-04-22 20:12 | 55.16795 | 6.26541 | 36423 ft | 503 kts | 268° |
| 2026-04-22 20:13 | 55.16738 | 6.12231 | 36427 ft | 503 kts | 268° |
| 2026-04-22 20:13 | 55.16676 | 5.99992 | 36432 ft | 503 kts | 267° |
| 2026-04-22 20:14 | 55.16602 | 5.87817 | 36432 ft | 503 kts | 267° |
| 2026-04-22 20:14 | 55.16515 | 5.75587 | 36435 ft | 503 kts | 267° |
| 2026-04-22 20:15 | 55.16416 | 5.63366 | 36435 ft | 502 kts | 267° |
| 2026-04-22 20:15 | 55.16305 | 5.51145 | 36440 ft | 502 kts | 267° |
| 2026-04-22 20:16 | 55.16182 | 5.38927 | 36448 ft | 502 kts | 266° |
| 2026-04-22 20:16 | 55.16047 | 5.26720 | 36443 ft | 502 kts | 266° |
| 2026-04-22 20:17 | 55.15900 | 5.14601 | 36442 ft | 501 kts | 266° |
| 2026-04-22 20:17 | 55.15741 | 5.02407 | 36458 ft | 501 kts | 266° |
| 2026-04-22 20:18 | 55.15569 | 4.90223 | 36452 ft | 501 kts | 266° |
| 2026-04-22 20:18 | 55.15386 | 4.78052 | 36447 ft | 501 kts | 266° |
| 2026-04-22 20:19 | 55.15190 | 4.65880 | 36445 ft | 500 kts | 266° |
| 2026-04-22 20:19 | 55.14982 | 4.53714 | 36447 ft | 500 kts | 266° |
| 2026-04-22 20:20 | 55.14763 | 4.41579 | 36448 ft | 500 kts | 265° |
| 2026-04-22 20:20 | 55.14532 | 4.29435 | 36458 ft | 499 kts | 265° |
| 2026-04-22 20:21 | 55.14289 | 4.17301 | 36445 ft | 499 kts | 265° |
| 2026-04-22 20:21 | 55.14035 | 4.05203 | 36454 ft | 498 kts | 265° |
| 2026-04-22 20:22 | 55.13746 | 3.93165 | 36467 ft | 497 kts | 263° |
| 2026-04-22 20:22 | 55.13028 | 3.81179 | 36479 ft | 495 kts | 260° |
| 2026-04-22 20:23 | 55.12140 | 3.69258 | 36468 ft | 494 kts | 260° |
| 2026-04-22 20:23 | 55.11268 | 3.57437 | 36468 ft | 493 kts | 260° |
| 2026-04-22 20:24 | 55.10418 | 3.45570 | 36475 ft | 492 kts | 260° |
| 2026-04-22 20:24 | 55.09573 | 3.33730 | 36475 ft | 491 kts | 260° |
| 2026-04-22 20:25 | 55.08719 | 3.21905 | 36493 ft | 490 kts | 261° |
| 2026-04-22 20:25 | 55.07855 | 3.10127 | 36475 ft | 488 kts | 261° |
| 2026-04-22 20:26 | 55.06981 | 2.98389 | 36484 ft | 487 kts | 261° |
| 2026-04-22 20:26 | 55.06253 | 2.88743 | 36487 ft | 485 kts | 261° |
| 2026-04-22 20:27 | 55.05361 | 2.77052 | 36492 ft | 484 kts | 260° |
| 2026-04-22 20:27 | 55.04463 | 2.65434 | 36496 ft | 483 kts | 261° |
| 2026-04-22 20:28 | 55.03556 | 2.53850 | 36494 ft | 481 kts | 261° |
| 2026-04-22 20:28 | 55.02642 | 2.42309 | 36493 ft | 480 kts | 261° |
| 2026-04-22 20:29 | 55.01718 | 2.30791 | 36495 ft | 479 kts | 260° |
| 2026-04-22 20:29 | 55.00785 | 2.19312 | 36497 ft | 478 kts | 260° |
| 2026-04-22 20:30 | 54.99843 | 2.07849 | 36500 ft | 477 kts | 261° |
| 2026-04-22 20:30 | 54.98894 | 1.96450 | 36511 ft | 475 kts | 261° |
| 2026-04-22 20:31 | 54.97938 | 1.85080 | 36503 ft | 474 kts | 261° |
| 2026-04-22 20:31 | 54.96982 | 1.73839 | 36503 ft | 472 kts | 261° |
| 2026-04-22 20:32 | 54.96010 | 1.62556 | 36501 ft | 470 kts | 261° |
| 2026-04-22 20:32 | 54.95033 | 1.51331 | 36514 ft | 468 kts | 262° |
| 2026-04-22 20:33 | 54.94049 | 1.40149 | 36504 ft | 467 kts | 261° |
| 2026-04-22 20:33 | 54.93059 | 1.29017 | 36512 ft | 465 kts | 261° |
| 2026-04-22 20:34 | 54.92058 | 1.17891 | 36505 ft | 464 kts | 261° |
| 2026-04-22 20:34 | 54.91052 | 1.06819 | 36510 ft | 463 kts | 262° |
| 2026-04-22 20:35 | 54.90037 | 0.95771 | 36511 ft | 462 kts | 262° |
| 2026-04-22 20:35 | 54.89014 | 0.84755 | 36508 ft | 462 kts | 262° |
| 2026-04-22 20:36 | 54.87984 | 0.73747 | 36511 ft | 461 kts | 262° |
| 2026-04-22 20:36 | 54.86946 | 0.62762 | 36512 ft | 461 kts | 262° |
| 2026-04-22 20:37 | 54.85896 | 0.51786 | 36522 ft | 460 kts | 262° |
| 2026-04-22 20:37 | 54.84837 | 0.40829 | 36506 ft | 459 kts | 262° |
| 2026-04-22 20:38 | 54.83777 | 0.29973 | 36506 ft | 458 kts | 262° |
| 2026-04-22 20:38 | 54.82704 | 0.19092 | 36513 ft | 457 kts | 262° |
| 2026-04-22 20:39 | 54.81626 | 0.08242 | 36516 ft | 456 kts | 261° |
| 2026-04-22 20:39 | 54.80542 | -0.02575 | 36511 ft | 455 kts | 261° |
| 2026-04-22 20:40 | 54.79450 | -0.13362 | 36517 ft | 454 kts | 262° |
| 2026-04-22 20:40 | 54.78348 | -0.24117 | 36515 ft | 453 kts | 262° |
| 2026-04-22 20:41 | 54.77242 | -0.34842 | 36516 ft | 452 kts | 261° |
| 2026-04-22 20:41 | 54.76128 | -0.45557 | 36518 ft | 451 kts | 261° |
| 2026-04-22 20:42 | 54.75007 | -0.56254 | 36518 ft | 451 kts | 261° |
| 2026-04-22 20:42 | 54.73874 | -0.66875 | 36517 ft | 451 kts | 259° |
| 2026-04-22 20:43 | 54.72255 | -0.77381 | 36526 ft | 452 kts | 255° |
| 2026-04-22 20:43 | 54.70408 | -0.87802 | 36512 ft | 453 kts | 254° |
| 2026-04-22 20:44 | 54.68572 | -0.98224 | 36513 ft | 453 kts | 255° |
| 2026-04-22 20:44 | 54.66765 | -1.08670 | 36507 ft | 454 kts | 255° |
| 2026-04-22 20:45 | 54.64965 | -1.19111 | 36509 ft | 453 kts | 255° |
| 2026-04-22 20:45 | 54.63160 | -1.29541 | 36510 ft | 453 kts | 255° |
| 2026-04-22 20:46 | 54.60435 | -1.45160 | 36511 ft | 453 kts | 255° |
| 2026-04-22 20:46 | 54.58616 | -1.55503 | 36508 ft | 453 kts | 255° |
| 2026-04-22 20:47 | 54.56779 | -1.65891 | 36524 ft | 452 kts | 254° |
| 2026-04-22 20:47 | 54.54940 | -1.76233 | 36507 ft | 451 kts | 254° |
| 2026-04-22 20:48 | 54.53098 | -1.86527 | 36510 ft | 449 kts | 254° |
| 2026-04-22 20:48 | 54.51252 | -1.96793 | 36516 ft | 448 kts | 254° |
| 2026-04-22 20:49 | 54.49401 | -2.07025 | 36514 ft | 448 kts | 254° |
| 2026-04-22 20:49 | 54.47542 | -2.17235 | 36515 ft | 446 kts | 255° |
| 2026-04-22 20:50 | 54.45692 | -2.27334 | 36498 ft | 444 kts | 255° |
| 2026-04-22 20:50 | 54.43836 | -2.37433 | 36483 ft | 442 kts | 255° |
| 2026-04-22 20:51 | 54.41975 | -2.47503 | 36492 ft | 441 kts | 254° |
| 2026-04-22 20:51 | 54.40114 | -2.57504 | 36460 ft | 440 kts | 253° |
| 2026-04-22 20:52 | 54.38250 | -2.67497 | 36479 ft | 439 kts | 253° |
| 2026-04-22 20:52 | 54.36378 | -2.77458 | 36470 ft | 440 kts | 253° |
| 2026-04-22 20:53 | 54.34489 | -2.87466 | 36466 ft | 441 kts | 253° |
| 2026-04-22 20:53 | 54.32602 | -2.97408 | 36465 ft | 442 kts | 253° |
| 2026-04-22 20:54 | 54.30690 | -3.07424 | 36452 ft | 443 kts | 252° |
| 2026-04-22 20:54 | 54.28768 | -3.17441 | 36453 ft | 444 kts | 252° |
| 2026-04-22 20:55 | 54.26833 | -3.27482 | 36441 ft | 442 kts | 252° |
| 2026-04-22 20:55 | 54.24914 | -3.37385 | 36429 ft | 436 kts | 252° |
| 2026-04-22 20:56 | 54.23002 | -3.47171 | 36426 ft | 433 kts | 251° |
| 2026-04-22 20:56 | 54.21072 | -3.56911 | 36425 ft | 432 kts | 251° |
| 2026-04-22 20:57 | 54.19142 | -3.66603 | 36435 ft | 436 kts | 251° |
| 2026-04-22 20:57 | 54.17159 | -3.76524 | 36430 ft | 438 kts | 251° |
| 2026-04-22 20:58 | 54.15214 | -3.86214 | 36402 ft | 432 kts | 251° |
| 2026-04-22 20:58 | 54.13274 | -3.95832 | 36396 ft | 427 kts | 251° |
| 2026-04-22 20:59 | 54.11326 | -4.05444 | 36385 ft | 430 kts | 251° |
| 2026-04-22 20:59 | 54.10338 | -4.10302 | 35884 ft | 437 kts | 251° |
| 2026-04-22 20:59 | 54.09345 | -4.15171 | 35364 ft | 433 kts | 251° |
| 2026-04-22 21:00 | 54.08351 | -4.20033 | 34704 ft | 433 kts | 251° |
| 2026-04-22 21:00 | 54.07359 | -4.24874 | 33885 ft | 434 kts | 250° |
| 2026-04-22 21:00 | 54.06376 | -4.29660 | 33197 ft | 433 kts | 250° |
| 2026-04-22 21:00 | 54.05379 | -4.34502 | 32470 ft | 433 kts | 250° |
| 2026-04-22 21:01 | 54.04382 | -4.39337 | 31766 ft | 433 kts | 249° |
| 2026-04-22 21:01 | 54.03383 | -4.44174 | 31022 ft | 433 kts | 249° |
| 2026-04-22 21:01 | 54.02380 | -4.49008 | 30236 ft | 435 kts | 248° |
| 2026-04-22 21:01 | 54.01338 | -4.53845 | 29403 ft | 434 kts | 246° |
| 2026-04-22 21:02 | 54.00196 | -4.58579 | 28635 ft | 432 kts | 245° |
| 2026-04-22 21:02 | 53.99008 | -4.63259 | 27833 ft | 432 kts | 245° |
| 2026-04-22 21:02 | 53.97810 | -4.67906 | 27269 ft | 427 kts | 244° |
| 2026-04-22 21:02 | 53.96624 | -4.72507 | 26622 ft | 422 kts | 244° |
| 2026-04-22 21:03 | 53.95457 | -4.77058 | 26034 ft | 418 kts | 244° |
| 2026-04-22 21:03 | 53.94305 | -4.81570 | 25441 ft | 418 kts | 243° |
| 2026-04-22 21:03 | 53.93137 | -4.86154 | 24861 ft | 427 kts | 244° |
| 2026-04-22 21:03 | 53.91946 | -4.90827 | 24226 ft | 431 kts | 244° |
| 2026-04-22 21:04 | 53.90766 | -4.95465 | 23568 ft | 427 kts | 244° |
| 2026-04-22 21:04 | 53.89610 | -5.00010 | 22897 ft | 422 kts | 244° |
| 2026-04-22 21:04 | 53.88437 | -5.04601 | 22273 ft | 417 kts | 244° |
| 2026-04-22 21:04 | 53.87304 | -5.09027 | 21677 ft | 412 kts | 244° |
| 2026-04-22 21:05 | 53.86168 | -5.13454 | 21087 ft | 407 kts | 244° |
| 2026-04-22 21:05 | 53.85042 | -5.17831 | 20505 ft | 403 kts | 244° |
| 2026-04-22 21:05 | 53.83930 | -5.22145 | 19929 ft | 399 kts | 244° |
| 2026-04-22 21:05 | 53.82822 | -5.26430 | 19358 ft | 395 kts | 244° |
| 2026-04-22 21:06 | 53.81728 | -5.30655 | 18808 ft | 391 kts | 244° |
| 2026-04-22 21:06 | 53.80636 | -5.34871 | 18164 ft | 388 kts | 244° |
| 2026-04-22 21:06 | 53.79556 | -5.39036 | 17550 ft | 384 kts | 244° |
| 2026-04-22 21:06 | 53.78490 | -5.43141 | 16999 ft | 380 kts | 244° |
| 2026-04-22 21:07 | 53.77427 | -5.47215 | 16420 ft | 377 kts | 243° |
| 2026-04-22 21:07 | 53.76283 | -5.51173 | 15829 ft | 372 kts | 234° |
| 2026-04-22 21:07 | 53.74742 | -5.54668 | 15188 ft | 369 kts | 228° |
| 2026-04-22 21:07 | 53.73122 | -5.58034 | 14615 ft | 368 kts | 227° |
| 2026-04-22 21:08 | 53.71523 | -5.61379 | 14062 ft | 366 kts | 228° |
| 2026-04-22 21:08 | 53.69943 | -5.64742 | 13450 ft | 364 kts | 228° |
| 2026-04-22 21:08 | 53.68408 | -5.68058 | 12880 ft | 362 kts | 228° |
| 2026-04-22 21:08 | 53.66851 | -5.71433 | 12334 ft | 359 kts | 228° |
| 2026-04-22 21:09 | 53.65346 | -5.74712 | 11794 ft | 357 kts | 230° |
| 2026-04-22 21:09 | 53.64206 | -5.78446 | 11334 ft | 363 kts | 251° |
| 2026-04-22 21:09 | 53.63694 | -5.82504 | 11268 ft | 349 kts | 254° |
| 2026-04-22 21:09 | 53.63193 | -5.86440 | 11097 ft | 338 kts | 253° |
| 2026-04-22 21:10 | 53.62695 | -5.90247 | 10956 ft | 327 kts | 253° |
| 2026-04-22 21:10 | 53.62205 | -5.93937 | 10820 ft | 318 kts | 252° |
| 2026-04-22 21:10 | 53.61727 | -5.97507 | 10687 ft | 309 kts | 252° |
| 2026-04-22 21:10 | 53.61259 | -6.00989 | 10559 ft | 300 kts | 252° |
| 2026-04-22 21:11 | 53.60803 | -6.04377 | 10426 ft | 292 kts | 252° |
| 2026-04-22 21:11 | 53.60357 | -6.07677 | 10271 ft | 286 kts | 252° |
| 2026-04-22 21:11 | 53.59914 | -6.10943 | 9975 ft | 285 kts | 252° |
| 2026-04-22 21:11 | 53.59479 | -6.14144 | 9694 ft | 283 kts | 252° |
| 2026-04-22 21:12 | 53.59181 | -6.16331 | 9514 ft | 282 kts | 252° |
| 2026-04-22 21:12 | 53.58603 | -6.20580 | 9146 ft | 280 kts | 252° |
| 2026-04-22 21:12 | 53.58169 | -6.23755 | 8880 ft | 279 kts | 252° |
| 2026-04-22 21:12 | 53.57738 | -6.26914 | 8685 ft | 273 kts | 252° |
| 2026-04-22 21:13 | 53.57319 | -6.29981 | 8566 ft | 266 kts | 252° |
| 2026-04-22 21:13 | 53.56909 | -6.32988 | 8439 ft | 262 kts | 254° |
| 2026-04-22 21:13 | 53.56935 | -6.36056 | 8329 ft | 266 kts | 285° |
| 2026-04-22 21:13 | 53.57491 | -6.37882 | 8337 ft | 264 kts | 307° |
| 2026-04-22 21:14 | 53.58867 | -6.39876 | 8341 ft | 262 kts | 328° |
| 2026-04-22 21:14 | 53.60474 | -6.41375 | 8350 ft | 267 kts | 332° |
| 2026-04-22 21:14 | 53.62133 | -6.42836 | 8350 ft | 271 kts | 332° |
| 2026-04-22 21:14 | 53.63800 | -6.44320 | 8338 ft | 271 kts | 331° |
| 2026-04-22 21:15 | 53.65256 | -6.46290 | 8307 ft | 266 kts | 302° |
| 2026-04-22 21:15 | 53.66190 | -6.48948 | 8330 ft | 263 kts | 296° |
| 2026-04-22 21:15 | 53.67074 | -6.51652 | 8336 ft | 263 kts | 296° |
| 2026-04-22 21:15 | 53.67986 | -6.54286 | 8338 ft | 263 kts | 298° |
| 2026-04-22 21:16 | 53.68925 | -6.56947 | 8330 ft | 264 kts | 297° |
| 2026-04-22 21:16 | 53.69740 | -6.59702 | 8319 ft | 260 kts | 278° |
| 2026-04-22 21:16 | 53.69832 | -6.62678 | 8358 ft | 253 kts | 263° |
| 2026-04-22 21:16 | 53.69793 | -6.65659 | 8340 ft | 255 kts | 264° |
| 2026-04-22 21:17 | 53.69762 | -6.68646 | 8340 ft | 256 kts | 264° |
| 2026-04-22 21:17 | 53.69734 | -6.71655 | 8326 ft | 257 kts | 264° |
| 2026-04-22 21:17 | 53.69698 | -6.74675 | 8326 ft | 257 kts | 261° |
| 2026-04-22 21:17 | 53.69183 | -6.77450 | 8311 ft | 243 kts | 233° |
| 2026-04-22 21:18 | 53.68294 | -6.79804 | 8270 ft | 233 kts | 232° |
| 2026-04-22 21:18 | 53.67457 | -6.82054 | 8192 ft | 225 kts | 232° |
| 2026-04-22 21:18 | 53.66649 | -6.84237 | 8149 ft | 212 kts | 231° |
| 2026-04-22 21:18 | 53.65892 | -6.86288 | 8063 ft | 199 kts | 231° |
| 2026-04-22 21:19 | 53.64986 | -6.87908 | 7768 ft | 184 kts | 201° |
| 2026-04-22 21:19 | 53.63760 | -6.88299 | 7414 ft | 175 kts | 173° |
| 2026-04-22 21:19 | 53.62632 | -6.87688 | 7091 ft | 174 kts | 150° |
| 2026-04-22 21:19 | 53.61620 | -6.86574 | 6779 ft | 174 kts | 147° |
| 2026-04-22 21:20 | 53.60628 | -6.85407 | 6482 ft | 173 kts | 146° |
| 2026-04-22 21:20 | 53.59651 | -6.84252 | 6197 ft | 171 kts | 146° |
| 2026-04-22 21:20 | 53.58679 | -6.83104 | 5908 ft | 169 kts | 145° |
| 2026-04-22 21:20 | 53.57721 | -6.81974 | 5629 ft | 167 kts | 145° |
| 2026-04-22 21:21 | 53.56771 | -6.80854 | 5327 ft | 166 kts | 145° |
| 2026-04-22 21:21 | 53.55837 | -6.79756 | 5026 ft | 165 kts | 144° |
| 2026-04-22 21:21 | 53.54901 | -6.78657 | 4736 ft | 163 kts | 144° |
| 2026-04-22 21:21 | 53.53967 | -6.77563 | 4525 ft | 157 kts | 144° |
| 2026-04-22 21:22 | 53.53124 | -6.76574 | 4428 ft | 143 kts | 144° |
| 2026-04-22 21:22 | 53.52315 | -6.75628 | 4153 ft | 142 kts | 143° |
| 2026-04-22 21:22 | 53.51487 | -6.74656 | 3759 ft | 147 kts | 143° |
| 2026-04-22 21:22 | 53.50648 | -6.73674 | 3459 ft | 146 kts | 143° |
| 2026-04-22 21:23 | 53.49813 | -6.72697 | 3147 ft | 146 kts | 142° |
| 2026-04-22 21:23 | 53.48984 | -6.71727 | 3036 ft | 146 kts | 143° |
| 2026-04-22 21:23 | 53.48138 | -6.70740 | 2999 ft | 148 kts | 143° |
| 2026-04-22 21:23 | 53.47373 | -6.69620 | 2987 ft | 146 kts | 126° |
| 2026-04-22 21:24 | 53.46808 | -6.68200 | 3001 ft | 148 kts | 125° |
| 2026-04-22 21:24 | 53.46233 | -6.66763 | 2999 ft | 148 kts | 125° |
| 2026-04-22 21:24 | 53.45802 | -6.65238 | 2975 ft | 149 kts | 101° |
| 2026-04-22 21:24 | 53.45772 | -6.63540 | 2989 ft | 143 kts | 102° |
| 2026-04-22 21:25 | 53.45670 | -6.61904 | 2997 ft | 140 kts | 103° |
| 2026-04-22 21:25 | 53.45567 | -6.60267 | 3007 ft | 141 kts | 102° |
| 2026-04-22 21:25 | 53.45467 | -6.58623 | 3010 ft | 142 kts | 102° |
| 2026-04-22 21:25 | 53.45370 | -6.56983 | 3000 ft | 141 kts | 102° |
| 2026-04-22 21:26 | 53.45275 | -6.55355 | 2993 ft | 139 kts | 102° |
| 2026-04-22 21:26 | 53.45185 | -6.53792 | 3012 ft | 132 kts | 102° |
| 2026-04-22 21:26 | 53.45084 | -6.52291 | 2999 ft | 128 kts | 104° |
| 2026-04-22 21:26 | 53.44984 | -6.50817 | 2971 ft | 127 kts | 103° |
| 2026-04-22 21:27 | 53.44907 | -6.49285 | 2792 ft | 133 kts | 102° |
| 2026-04-22 21:27 | 53.44836 | -6.47760 | 2601 ft | 131 kts | 101° |
| 2026-04-22 21:27 | 53.44752 | -6.46263 | 2439 ft | 127 kts | 102° |
| 2026-04-22 21:27 | 53.44659 | -6.44804 | 2195 ft | 129 kts | 102° |
| 2026-04-22 21:28 | 53.44570 | -6.43321 | 2020 ft | 127 kts | 102° |
| 2026-04-22 21:28 | 53.44476 | -6.41840 | 1828 ft | 126 kts | 101° |
| 2026-04-22 21:28 | 53.44401 | -6.40396 | 1691 ft | 125 kts | 100° |
| 2026-04-22 21:28 | 53.44325 | -6.38913 | 1569 ft | 129 kts | 101° |
| 2026-04-22 21:29 | 53.44222 | -6.37433 | 1418 ft | 126 kts | 100° |
| 2026-04-22 21:29 | 53.44133 | -6.35967 | 1202 ft | 126 kts | 97° |
| 2026-04-22 21:29 | 53.44071 | -6.34502 | 999 ft | 125 kts | 98° |
| 2026-04-22 21:29 | 53.43984 | -6.33016 | 860 ft | 131 kts | 97° |
| 2026-04-22 21:30 | 53.43892 | -6.31492 | 684 ft | 132 kts | 93° |
| 2026-04-22 21:30 | 53.43817 | -6.29949 | 473 ft | 133 kts | 95° |
| 2026-04-22 21:30 | 53.43742 | -6.28444 | 276 ft | 125 kts | 96° |
| 2026-04-22 21:30 | 53.43658 | -6.26943 | 215 ft | 122 kts | 97° |
| 2026-04-22 21:31 | 53.43588 | -6.25744 | 214 ft | 82 kts | 95° |
| 2026-04-22 21:31 | 53.43549 | -6.25025 | 211 ft | 53 kts | 94° |
| 2026-04-22 21:31 | 53.43525 | -6.24614 | 218 ft | 22 kts | 105° |
| 2026-04-22 21:31 | 53.43453 | -6.24548 | 211 ft | 7 kts | 180° |
| 2026-04-22 21:32 | 53.43404 | -6.24560 | 212 ft | 7 kts | 185° |
| 2026-04-22 21:32 | 53.43363 | -6.24604 | 212 ft | 7 kts | 244° |
| 2026-04-22 21:32 | 53.43360 | -6.24688 | 218 ft | 7 kts | 272° |
| 2026-04-22 21:32 | 53.43365 | -6.24774 | 216 ft | 8 kts | 275° |
| 2026-04-22 21:33 | 53.43372 | -6.24905 | 210 ft | 15 kts | 275° |
| 2026-04-22 21:33 | 53.43383 | -6.25117 | 212 ft | 20 kts | 275° |
| 2026-04-22 21:33 | 53.43395 | -6.25353 | 212 ft | 20 kts | 275° |
| 2026-04-22 21:33 | 53.43407 | -6.25580 | 210 ft | 18 kts | 266° |
| 2026-04-22 21:34 | 53.43310 | -6.25618 | 210 ft | 17 kts | 157° |
| 2026-04-22 21:34 | 53.43206 | -6.25541 | 213 ft | 15 kts | 150° |
| 2026-04-22 21:34 | 53.43203 | -6.25387 | 210 ft | 15 kts | 56° |
| 2026-04-22 21:34 | 53.43230 | -6.25228 | 210 ft | 14 kts | 97° |
| 2026-04-22 21:35 | 53.43221 | -6.25102 | 210 ft | 10 kts | 95° |
| 2026-04-22 21:35 | 53.43216 | -6.25003 | 218 ft | 7 kts | 94° |
| 2026-04-22 21:35 | 53.43215 | -6.24976 | 215 ft | 2 kts | 94° |
| 2026-04-22 21:35 | 53.43214 | -6.24950 | 193 ft | 3 kts | 95° |
| 2026-04-22 21:36 | 53.43211 | -6.24906 | 214 ft | 6 kts | 95° |
| 2026-04-22 21:36 | 53.43206 | -6.24808 | 210 ft | 11 kts | 95° |
| 2026-04-22 21:36 | 53.43185 | -6.24745 | 210 ft | 5 kts | 160° |
| 2026-04-22 21:36 | 53.43153 | -6.24749 | 216 ft | 5 kts | 197° |
| 2026-04-22 21:37 | 53.43122 | -6.24762 | 210 ft | 5 kts | 181° |
| 2026-04-22 21:37 | 53.43107 | -6.24763 | 218 ft | 0 kts | 184° |
| 2026-04-22 21:37 | 53.43099 | -6.24764 | 215 ft | 2 kts | 183° |
| 2026-04-22 21:37 | 53.43098 | -6.24764 | 215 ft | 0 kts | 183° |